sensor_id;sensor_type;location;lat;lon;timestamp;temperature;humidity
3017;DHT22;1518;52.408;13.060;2023-03-20T00:02:46;22.30;65.70
3017;DHT22;1518;52.408;13.060;2023-03-20T00:05:34;22.20;65.50
3017;DHT22;1518;52.408;13.060;2023-03-20T00:08:24;22.20;65.60
3017;DHT22;1518;52.408;13.060;2023-03-20T00:11:26;22.10;65.70
3017;DHT22;1518;52.408;13.060;2023-03-20T00:14:18;22.10;65.60
3017;DHT22;1518;52.408;13.060;2023-03-20T00:17:09;22.10;65.80
3017;DHT22;1518;52.408;13.060;2023-03-20T00:19:58;22.10;65.80
3017;DHT22;1518;52.408;13.060;2023-03-20T00:22:46;22.10;65.80
3017;DHT22;1518;52.408;13.060;2023-03-20T00:25:37;22.00;65.70
3017;DHT22;1518;52.408;13.060;2023-03-20T00:28:31;22.00;65.80
3017;DHT22;1518;52.408;13.060;2023-03-20T00:31:25;22.00;65.90
3017;DHT22;1518;52.408;13.060;2023-03-20T00:34:16;22.00;65.90
3017;DHT22;1518;52.408;13.060;2023-03-20T00:37:05;22.00;65.90
3017;DHT22;1518;52.408;13.060;2023-03-20T00:39:53;22.00;66.00
3017;DHT22;1518;52.408;13.060;2023-03-20T00:42:43;22.10;65.90
3017;DHT22;1518;52.408;13.060;2023-03-20T00:45:33;22.10;65.80
3017;DHT22;1518;52.408;13.060;2023-03-20T00:48:22;22.10;65.80
3017;DHT22;1518;52.408;13.060;2023-03-20T00:51:10;22.20;65.70
3017;DHT22;1518;52.408;13.060;2023-03-20T00:53:58;22.20;65.70
3017;DHT22;1518;52.408;13.060;2023-03-20T00:56:51;22.30;65.70
3017;DHT22;1518;52.408;13.060;2023-03-20T00:59:51;22.30;65.60
3017;DHT22;1518;52.408;13.060;2023-03-20T01:02:41;22.30;65.50
3017;DHT22;1518;52.408;13.060;2023-03-20T01:05:29;22.30;65.60
3017;DHT22;1518;52.408;13.060;2023-03-20T01:08:18;22.30;65.60
3017;DHT22;1518;52.408;13.060;2023-03-20T01:11:09;22.30;65.60
3017;DHT22;1518;52.408;13.060;2023-03-20T01:13:58;22.20;65.50
3017;DHT22;1518;52.408;13.060;2023-03-20T01:16:48;22.20;65.60
3017;DHT22;1518;52.408;13.060;2023-03-20T01:19:36;22.20;65.60
3017;DHT22;1518;52.408;13.060;2023-03-20T01:22:24;22.10;65.50
3017;DHT22;1518;52.408;13.060;2023-03-20T01:25:12;22.10;65.80
3017;DHT22;1518;52.408;13.060;2023-03-20T01:28:01;22.10;65.80
3017;DHT22;1518;52.408;13.060;2023-03-20T01:30:50;22.00;65.70
3017;DHT22;1518;52.408;13.060;2023-03-20T01:33:39;22.00;65.90
3017;DHT22;1518;52.408;13.060;2023-03-20T01:36:27;22.00;66.00
3017;DHT22;1518;52.408;13.060;2023-03-20T01:39:16;21.90;75.60
3017;DHT22;1518;52.408;13.060;2023-03-20T01:42:05;22.00;66.10
3017;DHT22;1518;52.408;13.060;2023-03-20T01:44:53;22.00;66.00
3017;DHT22;1518;52.408;13.060;2023-03-20T01:47:42;22.00;66.00
3017;DHT22;1518;52.408;13.060;2023-03-20T01:50:32;22.00;65.90
3017;DHT22;1518;52.408;13.060;2023-03-20T01:53:23;22.10;66.00
3017;DHT22;1518;52.408;13.060;2023-03-20T01:56:13;22.10;65.90
3017;DHT22;1518;52.408;13.060;2023-03-20T01:59:06;22.10;65.80
3017;DHT22;1518;52.408;13.060;2023-03-20T02:01:55;22.10;65.70
3017;DHT22;1518;52.408;13.060;2023-03-20T02:04:46;22.20;65.80
3017;DHT22;1518;52.408;13.060;2023-03-20T02:07:37;22.10;65.70
3017;DHT22;1518;52.408;13.060;2023-03-20T02:10:26;22.20;65.80
3017;DHT22;1518;52.408;13.060;2023-03-20T02:13:15;22.10;65.80
3017;DHT22;1518;52.408;13.060;2023-03-20T02:16:06;22.10;65.70
3017;DHT22;1518;52.408;13.060;2023-03-20T02:18:55;22.10;65.70
3017;DHT22;1518;52.408;13.060;2023-03-20T02:22:08;22.10;65.70
3017;DHT22;1518;52.408;13.060;2023-03-20T02:25:28;22.10;65.80
3017;DHT22;1518;52.408;13.060;2023-03-20T02:32:19;22.00;65.90
3017;DHT22;1518;52.408;13.060;2023-03-20T02:35:27;22.00;65.90
3017;DHT22;1518;52.408;13.060;2023-03-20T02:38:36;21.90;65.90
3017;DHT22;1518;52.408;13.060;2023-03-20T02:41:29;22.00;66.10
3017;DHT22;1518;52.408;13.060;2023-03-20T02:44:23;22.00;66.10
3017;DHT22;1518;52.408;13.060;2023-03-20T02:47:16;22.00;66.10
3017;DHT22;1518;52.408;13.060;2023-03-20T02:50:13;22.00;66.10
3017;DHT22;1518;52.408;13.060;2023-03-20T02:53:11;22.00;66.10
3017;DHT22;1518;52.408;13.060;2023-03-20T02:56:10;22.00;65.90
3017;DHT22;1518;52.408;13.060;2023-03-20T02:59:03;22.00;66.10
3017;DHT22;1518;52.408;13.060;2023-03-20T03:01:58;22.00;66.00
3017;DHT22;1518;52.408;13.060;2023-03-20T03:04:53;22.10;66.00
3017;DHT22;1518;52.408;13.060;2023-03-20T03:07:44;22.10;65.90
3017;DHT22;1518;52.408;13.060;2023-03-20T03:10:35;22.10;65.90
3017;DHT22;1518;52.408;13.060;2023-03-20T03:13:28;22.10;66.00
3017;DHT22;1518;52.408;13.060;2023-03-20T03:16:20;22.10;65.90
3017;DHT22;1518;52.408;13.060;2023-03-20T03:19:12;21.90;77.60
3017;DHT22;1518;52.408;13.060;2023-03-20T03:22:02;22.00;66.00
3017;DHT22;1518;52.408;13.060;2023-03-20T03:24:53;22.00;65.90
3017;DHT22;1518;52.408;13.060;2023-03-20T03:27:43;22.00;66.00
3017;DHT22;1518;52.408;13.060;2023-03-20T03:30:36;22.00;66.10
3017;DHT22;1518;52.408;13.060;2023-03-20T03:33:27;22.00;66.10
3017;DHT22;1518;52.408;13.060;2023-03-20T03:36:24;21.90;66.00
3017;DHT22;1518;52.408;13.060;2023-03-20T03:39:23;22.10;76.20
3017;DHT22;1518;52.408;13.060;2023-03-20T03:42:16;21.80;66.10
3017;DHT22;1518;52.408;13.060;2023-03-20T03:45:11;21.90;66.30
3017;DHT22;1518;52.408;13.060;2023-03-20T03:48:05;21.90;66.30
3017;DHT22;1518;52.408;13.060;2023-03-20T03:50:57;21.90;66.30
3017;DHT22;1518;52.408;13.060;2023-03-20T03:53:52;21.90;66.20
3017;DHT22;1518;52.408;13.060;2023-03-20T03:56:43;21.90;66.20
3017;DHT22;1518;52.408;13.060;2023-03-20T03:59:36;22.00;66.30
3017;DHT22;1518;52.408;13.060;2023-03-20T04:02:25;22.00;66.20
3017;DHT22;1518;52.408;13.060;2023-03-20T04:05:16;22.00;66.20
3017;DHT22;1518;52.408;13.060;2023-03-20T04:08:06;22.00;66.10
3017;DHT22;1518;52.408;13.060;2023-03-20T04:10:54;22.00;66.10
3017;DHT22;1518;52.408;13.060;2023-03-20T04:13:42;22.00;66.20
3017;DHT22;1518;52.408;13.060;2023-03-20T04:16:30;22.00;66.00
3017;DHT22;1518;52.408;13.060;2023-03-20T04:19:18;22.20;80.40
3017;DHT22;1518;52.408;13.060;2023-03-20T04:22:08;22.00;66.10
3017;DHT22;1518;52.408;13.060;2023-03-20T04:24:56;22.00;66.00
3017;DHT22;1518;52.408;13.060;2023-03-20T04:27:44;22.00;66.90
3017;DHT22;1518;52.408;13.060;2023-03-20T04:30:32;22.00;66.10
3017;DHT22;1518;52.408;13.060;2023-03-20T04:33:20;22.00;66.20
3017;DHT22;1518;52.408;13.060;2023-03-20T04:36:09;21.90;66.10
3017;DHT22;1518;52.408;13.060;2023-03-20T04:38:59;21.90;66.20
3017;DHT22;1518;52.408;13.060;2023-03-20T04:41:47;21.90;66.30
3017;DHT22;1518;52.408;13.060;2023-03-20T04:44:35;21.90;66.30
3017;DHT22;1518;52.408;13.060;2023-03-20T04:47:23;21.90;66.30
3017;DHT22;1518;52.408;13.060;2023-03-20T04:50:11;21.90;66.50
3017;DHT22;1518;52.408;13.060;2023-03-20T04:53:00;21.90;66.40
3017;DHT22;1518;52.408;13.060;2023-03-20T04:55:49;21.90;66.40
3017;DHT22;1518;52.408;13.060;2023-03-20T04:58:37;21.90;66.40
3017;DHT22;1518;52.408;13.060;2023-03-20T05:01:26;22.50;66.90
3017;DHT22;1518;52.408;13.060;2023-03-20T05:04:14;21.90;66.30
3017;DHT22;1518;52.408;13.060;2023-03-20T05:07:03;21.90;66.20
3017;DHT22;1518;52.408;13.060;2023-03-20T05:09:51;22.00;66.20
3017;DHT22;1518;52.408;13.060;2023-03-20T05:12:40;22.00;66.20
3017;DHT22;1518;52.408;13.060;2023-03-20T05:15:28;22.00;66.10
3017;DHT22;1518;52.408;13.060;2023-03-20T05:18:17;22.00;66.20
3017;DHT22;1518;52.408;13.060;2023-03-20T05:21:06;22.00;66.20
3017;DHT22;1518;52.408;13.060;2023-03-20T05:23:54;22.00;66.20
3017;DHT22;1518;52.408;13.060;2023-03-20T05:26:42;22.00;66.20
3017;DHT22;1518;52.408;13.060;2023-03-20T05:29:32;21.90;66.20
3017;DHT22;1518;52.408;13.060;2023-03-20T05:32:20;21.90;66.10
3017;DHT22;1518;52.408;13.060;2023-03-20T05:35:08;21.90;66.20
3017;DHT22;1518;52.408;13.060;2023-03-20T05:37:57;21.90;66.40
3017;DHT22;1518;52.408;13.060;2023-03-20T05:40:45;21.90;66.60
3017;DHT22;1518;52.408;13.060;2023-03-20T05:43:33;21.80;66.40
3017;DHT22;1518;52.408;13.060;2023-03-20T05:46:22;23.20;67.80
3017;DHT22;1518;52.408;13.060;2023-03-20T05:49:12;21.70;79.30
3017;DHT22;1518;52.408;13.060;2023-03-20T05:52:00;21.80;66.10
3017;DHT22;1518;52.408;13.060;2023-03-20T05:54:48;21.80;66.90
3017;DHT22;1518;52.408;13.060;2023-03-20T05:57:36;21.80;66.90
3017;DHT22;1518;52.408;13.060;2023-03-20T06:00:24;21.80;66.90
3017;DHT22;1518;52.408;13.060;2023-03-20T06:03:14;21.70;66.80
3017;DHT22;1518;52.408;13.060;2023-03-20T06:06:02;21.70;66.90
3017;DHT22;1518;52.408;13.060;2023-03-20T06:08:51;21.70;66.80
3017;DHT22;1518;52.408;13.060;2023-03-20T06:11:39;21.70;66.90
3017;DHT22;1518;52.408;13.060;2023-03-20T06:14:27;21.70;66.80
3017;DHT22;1518;52.408;13.060;2023-03-20T06:17:15;21.70;66.90
3017;DHT22;1518;52.408;13.060;2023-03-20T06:20:06;21.80;82.30
3017;DHT22;1518;52.408;13.060;2023-03-20T06:22:54;21.70;67.00
3017;DHT22;1518;52.408;13.060;2023-03-20T06:25:42;23.00;68.50
3017;DHT22;1518;52.408;13.060;2023-03-20T06:28:30;21.50;66.80
3017;DHT22;1518;52.408;13.060;2023-03-20T06:31:18;21.50;66.80
3017;DHT22;1518;52.408;13.060;2023-03-20T06:34:06;21.70;66.80
3017;DHT22;1518;52.408;13.060;2023-03-20T06:36:56;21.70;66.90
3017;DHT22;1518;52.408;13.060;2023-03-20T06:39:44;21.70;67.10
3017;DHT22;1518;52.408;13.060;2023-03-20T06:42:32;21.60;66.90
3017;DHT22;1518;52.408;13.060;2023-03-20T06:45:21;21.70;66.90
3017;DHT22;1518;52.408;13.060;2023-03-20T06:48:09;21.70;66.90
3017;DHT22;1518;52.408;13.060;2023-03-20T06:50:57;21.60;66.70
3017;DHT22;1518;52.408;13.060;2023-03-20T06:53:47;21.60;66.90
3017;DHT22;1518;52.408;13.060;2023-03-20T06:56:35;21.60;66.90
3017;DHT22;1518;52.408;13.060;2023-03-20T06:59:23;21.60;66.80
3017;DHT22;1518;52.408;13.060;2023-03-20T07:02:13;21.60;66.90
3017;DHT22;1518;52.408;13.060;2023-03-20T07:05:02;21.60;66.90
3017;DHT22;1518;52.408;13.060;2023-03-20T07:07:50;21.60;67.10
3017;DHT22;1518;52.408;13.060;2023-03-20T07:10:40;21.50;67.00
3017;DHT22;1518;52.408;13.060;2023-03-20T07:13:28;21.50;67.10
3017;DHT22;1518;52.408;13.060;2023-03-20T07:16:16;21.40;67.10
3017;DHT22;1518;52.408;13.060;2023-03-20T07:19:04;21.40;67.10
3017;DHT22;1518;52.408;13.060;2023-03-20T07:21:57;21.40;67.10
3017;DHT22;1518;52.408;13.060;2023-03-20T07:24:47;21.40;67.10
3017;DHT22;1518;52.408;13.060;2023-03-20T07:27:37;21.40;67.70
3017;DHT22;1518;52.408;13.060;2023-03-20T07:30:25;21.40;67.10
3017;DHT22;1518;52.408;13.060;2023-03-20T07:33:13;21.50;67.00
3017;DHT22;1518;52.408;13.060;2023-03-20T07:36:02;21.50;67.10
3017;DHT22;1518;52.408;13.060;2023-03-20T07:38:50;21.50;67.10
3017;DHT22;1518;52.408;13.060;2023-03-20T07:41:38;21.50;66.90
3017;DHT22;1518;52.408;13.060;2023-03-20T07:44:28;21.60;67.00
3017;DHT22;1518;52.408;13.060;2023-03-20T07:47:16;21.60;66.90
3017;DHT22;1518;52.408;13.060;2023-03-20T07:50:05;21.90;82.30
3017;DHT22;1518;52.408;13.060;2023-03-20T07:52:54;21.70;66.90
3017;DHT22;1518;52.408;13.060;2023-03-20T07:55:42;21.70;66.70
3017;DHT22;1518;52.408;13.060;2023-03-20T07:58:31;21.70;66.80
3017;DHT22;1518;52.408;13.060;2023-03-20T08:01:20;21.70;66.90
3017;DHT22;1518;52.408;13.060;2023-03-20T08:04:09;21.70;66.90
3017;DHT22;1518;52.408;13.060;2023-03-20T08:06:57;21.60;66.90
3017;DHT22;1518;52.408;13.060;2023-03-20T08:09:45;21.60;67.00
3017;DHT22;1518;52.408;13.060;2023-03-20T08:12:33;21.60;66.90
3017;DHT22;1518;52.408;13.060;2023-03-20T08:15:21;21.50;66.90
3017;DHT22;1518;52.408;13.060;2023-03-20T08:18:11;21.50;66.80
3017;DHT22;1518;52.408;13.060;2023-03-20T08:20:59;21.50;66.70
3017;DHT22;1518;52.408;13.060;2023-03-20T08:23:47;21.50;66.80
3017;DHT22;1518;52.408;13.060;2023-03-20T08:26:35;21.50;66.80
3017;DHT22;1518;52.408;13.060;2023-03-20T08:29:24;21.60;66.90
3017;DHT22;1518;52.408;13.060;2023-03-20T08:32:12;21.60;66.80
3017;DHT22;1518;52.408;13.060;2023-03-20T08:35:01;21.60;66.70
3017;DHT22;1518;52.408;13.060;2023-03-20T08:37:50;21.70;66.60
3017;DHT22;1518;52.408;13.060;2023-03-20T08:40:39;21.70;66.50
3017;DHT22;1518;52.408;13.060;2023-03-20T08:43:27;21.80;66.50
3017;DHT22;1518;52.408;13.060;2023-03-20T08:46:16;21.80;66.30
3017;DHT22;1518;52.408;13.060;2023-03-20T08:49:04;21.90;66.50
3017;DHT22;1518;52.408;13.060;2023-03-20T08:51:54;21.80;66.30
3017;DHT22;1518;52.408;13.060;2023-03-20T08:54:42;21.90;66.40
3017;DHT22;1518;52.408;13.060;2023-03-20T08:57:30;21.90;66.30
3017;DHT22;1518;52.408;13.060;2023-03-20T09:00:19;21.90;66.30
3017;DHT22;1518;52.408;13.060;2023-03-20T09:03:10;21.90;66.60
3017;DHT22;1518;52.408;13.060;2023-03-20T09:06:03;21.90;66.60
3017;DHT22;1518;52.408;13.060;2023-03-20T09:08:54;21.90;67.00
3017;DHT22;1518;52.408;13.060;2023-03-20T09:11:43;21.80;66.80
3017;DHT22;1518;52.408;13.060;2023-03-20T09:14:31;21.80;66.80
3017;DHT22;1518;52.408;13.060;2023-03-20T09:17:19;21.80;67.00
3017;DHT22;1518;52.408;13.060;2023-03-20T09:20:08;22.00;82.60
3017;DHT22;1518;52.408;13.060;2023-03-20T09:22:57;21.70;67.10
3017;DHT22;1518;52.408;13.060;2023-03-20T09:25:47;21.70;67.10
3017;DHT22;1518;52.408;13.060;2023-03-20T09:28:35;21.70;67.10
3017;DHT22;1518;52.408;13.060;2023-03-20T09:31:23;21.70;66.90
3017;DHT22;1518;52.408;13.060;2023-03-20T09:34:11;21.70;66.70
3017;DHT22;1518;52.408;13.060;2023-03-20T09:36:59;21.80;66.80
3017;DHT22;1518;52.408;13.060;2023-03-20T09:39:49;21.80;66.60
3017;DHT22;1518;52.408;13.060;2023-03-20T09:42:47;21.80;66.60
3017;DHT22;1518;52.408;13.060;2023-03-20T09:45:44;21.90;66.40
3017;DHT22;1518;52.408;13.060;2023-03-20T09:48:42;22.00;66.30
3017;DHT22;1518;52.408;13.060;2023-03-20T09:51:36;22.00;66.80
3017;DHT22;1518;52.408;13.060;2023-03-20T09:54:26;22.00;65.90
3017;DHT22;1518;52.408;13.060;2023-03-20T09:57:24;22.00;65.90
3017;DHT22;1518;52.408;13.060;2023-03-20T10:00:17;22.00;66.10
3017;DHT22;1518;52.408;13.060;2023-03-20T10:03:16;22.00;66.00
3017;DHT22;1518;52.408;13.060;2023-03-20T10:06:10;22.00;65.90
3017;DHT22;1518;52.408;13.060;2023-03-20T10:08:59;22.00;65.90
3017;DHT22;1518;52.408;13.060;2023-03-20T10:12:11;22.00;65.90
3017;DHT22;1518;52.408;13.060;2023-03-20T10:15:10;22.00;65.90
3017;DHT22;1518;52.408;13.060;2023-03-20T10:18:10;21.90;65.80
3017;DHT22;1518;52.408;13.060;2023-03-20T10:21:04;21.90;65.90
3017;DHT22;1518;52.408;13.060;2023-03-20T10:23:58;21.90;66.10
3017;DHT22;1518;52.408;13.060;2023-03-20T10:26:51;21.90;65.90
3017;DHT22;1518;52.408;13.060;2023-03-20T10:29:47;21.80;65.90
3017;DHT22;1518;52.408;13.060;2023-03-20T10:32:42;21.90;66.10
3017;DHT22;1518;52.408;13.060;2023-03-20T10:35:39;21.90;66.00
3017;DHT22;1518;52.408;13.060;2023-03-20T10:38:35;21.90;66.00
3017;DHT22;1518;52.408;13.060;2023-03-20T10:41:28;21.90;66.00
3017;DHT22;1518;52.408;13.060;2023-03-20T10:44:23;22.00;66.00
3017;DHT22;1518;52.408;13.060;2023-03-20T10:47:17;22.00;65.80
3017;DHT22;1518;52.408;13.060;2023-03-20T10:50:12;21.80;79.80
3017;DHT22;1518;52.408;13.060;2023-03-20T10:53:04;22.00;65.70
3017;DHT22;1518;52.408;13.060;2023-03-20T10:55:55;22.10;65.60
3017;DHT22;1518;52.408;13.060;2023-03-20T10:58:46;22.10;65.50
3017;DHT22;1518;52.408;13.060;2023-03-20T11:01:35;22.10;65.40
3017;DHT22;1518;52.408;13.060;2023-03-20T11:04:23;22.10;65.40
3017;DHT22;1518;52.408;13.060;2023-03-20T11:07:18;22.10;65.40
3017;DHT22;1518;52.408;13.060;2023-03-20T11:10:13;21.90;79.40
3017;DHT22;1518;52.408;13.060;2023-03-20T11:13:13;22.10;65.30
3017;DHT22;1518;52.408;13.060;2023-03-20T11:16:24;22.00;65.20
3017;DHT22;1518;52.408;13.060;2023-03-20T11:19:13;22.00;65.40
3017;DHT22;1518;52.408;13.060;2023-03-20T11:22:07;21.90;65.50
3017;DHT22;1518;52.408;13.060;2023-03-20T11:24:57;21.90;65.30
3017;DHT22;1518;52.408;13.060;2023-03-20T11:27:48;21.80;65.60
3017;DHT22;1518;52.408;13.060;2023-03-20T11:30:39;21.80;65.80
3017;DHT22;1518;52.408;13.060;2023-03-20T11:33:45;21.70;65.70
3017;DHT22;1518;52.408;13.060;2023-03-20T11:36:33;21.70;65.90
3017;DHT22;1518;52.408;13.060;2023-03-20T11:39:25;21.70;66.00
3017;DHT22;1518;52.408;13.060;2023-03-20T11:42:22;21.70;65.30
3017;DHT22;1518;52.408;13.060;2023-03-20T11:45:16;21.80;65.80
3017;DHT22;1518;52.408;13.060;2023-03-20T11:48:05;21.80;65.70
3017;DHT22;1518;52.408;13.060;2023-03-20T11:50:58;21.80;65.50
3017;DHT22;1518;52.408;13.060;2023-03-20T11:53:57;21.90;65.50
3017;DHT22;1518;52.408;13.060;2023-03-20T11:56:52;21.90;65.60
3017;DHT22;1518;52.408;13.060;2023-03-20T11:59:40;21.90;65.40
3017;DHT22;1518;52.408;13.060;2023-03-20T12:02:30;21.90;65.50
3017;DHT22;1518;52.408;13.060;2023-03-20T12:05:27;21.90;65.30
3017;DHT22;1518;52.408;13.060;2023-03-20T12:08:20;21.90;65.30
3017;DHT22;1518;52.408;13.060;2023-03-20T12:11:20;21.90;65.20
3017;DHT22;1518;52.408;13.060;2023-03-20T12:14:17;21.90;65.30
3017;DHT22;1518;52.408;13.060;2023-03-20T12:17:30;21.90;65.20
3017;DHT22;1518;52.408;13.060;2023-03-20T12:20:26;21.90;65.00
3017;DHT22;1518;52.408;13.060;2023-03-20T12:23:21;21.80;65.00
3017;DHT22;1518;52.408;13.060;2023-03-20T12:26:13;21.80;65.50
3017;DHT22;1518;52.408;13.060;2023-03-20T12:29:05;21.80;65.50
3017;DHT22;1518;52.408;13.060;2023-03-20T12:32:01;21.80;65.50
3017;DHT22;1518;52.408;13.060;2023-03-20T12:34:53;21.80;65.40
3017;DHT22;1518;52.408;13.060;2023-03-20T12:37:43;21.70;65.70
3017;DHT22;1518;52.408;13.060;2023-03-20T12:40:40;21.80;65.50
3017;DHT22;1518;52.408;13.060;2023-03-20T12:43:35;21.80;65.50
3017;DHT22;1518;52.408;13.060;2023-03-20T12:46:33;21.90;65.50
3017;DHT22;1518;52.408;13.060;2023-03-20T12:49:33;21.90;65.40
3017;DHT22;1518;52.408;13.060;2023-03-20T12:52:36;22.00;65.20
3017;DHT22;1518;52.408;13.060;2023-03-20T12:55:39;22.00;65.20
3017;DHT22;1518;52.408;13.060;2023-03-20T12:58:38;22.00;64.90
3017;DHT22;1518;52.408;13.060;2023-03-20T13:01:30;22.00;65.00
3017;DHT22;1518;52.408;13.060;2023-03-20T13:04:39;22.10;65.00
3017;DHT22;1518;52.408;13.060;2023-03-20T13:07:42;22.10;65.00
3017;DHT22;1518;52.408;13.060;2023-03-20T13:10:34;22.10;64.70
3017;DHT22;1518;52.408;13.060;2023-03-20T13:13:30;22.10;64.60
3017;DHT22;1518;52.408;13.060;2023-03-20T13:16:27;22.20;64.70
3017;DHT22;1518;52.408;13.060;2023-03-20T13:19:24;22.20;64.70
3017;DHT22;1518;52.408;13.060;2023-03-20T13:22:19;22.00;64.40
3017;DHT22;1518;52.408;13.060;2023-03-20T13:25:22;22.10;64.70
3017;DHT22;1518;52.408;13.060;2023-03-20T13:28:18;22.10;64.50
3017;DHT22;1518;52.408;13.060;2023-03-20T13:31:24;22.10;64.70
3017;DHT22;1518;52.408;13.060;2023-03-20T13:34:23;22.10;64.60
3017;DHT22;1518;52.408;13.060;2023-03-20T13:37:20;22.00;64.80
3017;DHT22;1518;52.408;13.060;2023-03-20T13:40:14;22.10;80.80
3017;DHT22;1518;52.408;13.060;2023-03-20T13:43:12;21.90;65.20
3017;DHT22;1518;52.408;13.060;2023-03-20T13:46:07;21.90;65.10
3017;DHT22;1518;52.408;13.060;2023-03-20T13:49:01;21.90;65.20
3017;DHT22;1518;52.408;13.060;2023-03-20T13:51:55;21.80;65.20
3017;DHT22;1518;52.408;13.060;2023-03-20T13:55:01;21.80;65.20
3017;DHT22;1518;52.408;13.060;2023-03-20T13:58:13;21.70;65.00
3017;DHT22;1518;52.408;13.060;2023-03-20T14:01:07;21.70;64.80
3017;DHT22;1518;52.408;13.060;2023-03-20T14:03:59;21.70;65.40
3017;DHT22;1518;52.408;13.060;2023-03-20T14:06:52;21.60;65.30
3017;DHT22;1518;52.408;13.060;2023-03-20T14:09:41;21.60;65.40
3017;DHT22;1518;52.408;13.060;2023-03-20T14:12:31;21.60;65.50
3017;DHT22;1518;52.408;13.060;2023-03-20T14:15:22;21.50;65.50
3017;DHT22;1518;52.408;13.060;2023-03-20T14:18:15;21.50;65.50
3017;DHT22;1518;52.408;13.060;2023-03-20T14:21:11;21.50;65.70
3017;DHT22;1518;52.408;13.060;2023-03-20T14:24:02;21.40;65.70
3017;DHT22;1518;52.408;13.060;2023-03-20T14:26:54;21.40;66.10
3017;DHT22;1518;52.408;13.060;2023-03-20T14:29:43;21.40;66.10
3017;DHT22;1518;52.408;13.060;2023-03-20T14:32:34;21.40;66.10
3017;DHT22;1518;52.408;13.060;2023-03-20T14:35:25;21.30;66.10
3017;DHT22;1518;52.408;13.060;2023-03-20T14:38:23;21.30;66.10
3017;DHT22;1518;52.408;13.060;2023-03-20T14:41:18;21.20;66.20
3017;DHT22;1518;52.408;13.060;2023-03-20T14:44:18;21.20;66.40
3017;DHT22;1518;52.408;13.060;2023-03-20T14:47:19;21.10;66.50
3017;DHT22;1518;52.408;13.060;2023-03-20T14:50:16;21.20;82.00
3017;DHT22;1518;52.408;13.060;2023-03-20T14:53:14;21.00;66.60
3017;DHT22;1518;52.408;13.060;2023-03-20T14:56:07;21.00;66.80
3017;DHT22;1518;52.408;13.060;2023-03-20T14:59:00;20.90;66.70
3017;DHT22;1518;52.408;13.060;2023-03-20T15:01:56;20.90;66.60
3017;DHT22;1518;52.408;13.060;2023-03-20T15:04:45;20.90;66.90
3017;DHT22;1518;52.408;13.060;2023-03-20T15:07:38;20.90;67.10
3017;DHT22;1518;52.408;13.060;2023-03-20T15:10:26;20.80;67.10
3017;DHT22;1518;52.408;13.060;2023-03-20T15:13:15;20.80;67.30
3017;DHT22;1518;52.408;13.060;2023-03-20T15:16:06;20.70;67.50
3017;DHT22;1518;52.408;13.060;2023-03-20T15:18:54;20.60;67.50
3017;DHT22;1518;52.408;13.060;2023-03-20T15:21:44;21.90;68.90
3017;DHT22;1518;52.408;13.060;2023-03-20T15:24:35;20.50;67.60
3017;DHT22;1518;52.408;13.060;2023-03-20T15:27:24;20.40;67.70
3017;DHT22;1518;52.408;13.060;2023-03-20T15:30:17;20.40;67.70
3017;DHT22;1518;52.408;13.060;2023-03-20T15:33:10;20.40;67.90
3017;DHT22;1518;52.408;13.060;2023-03-20T15:36:07;20.30;67.80
3017;DHT22;1518;52.408;13.060;2023-03-20T15:39:05;20.30;67.90
3017;DHT22;1518;52.408;13.060;2023-03-20T15:41:58;20.20;67.90
3017;DHT22;1518;52.408;13.060;2023-03-20T15:44:50;20.20;68.10
3017;DHT22;1518;52.408;13.060;2023-03-20T15:47:41;20.10;68.00
3017;DHT22;1518;52.408;13.060;2023-03-20T15:50:31;20.10;68.30
3017;DHT22;1518;52.408;13.060;2023-03-20T15:53:27;20.10;68.30
3017;DHT22;1518;52.408;13.060;2023-03-20T15:56:18;20.00;68.30
3017;DHT22;1518;52.408;13.060;2023-03-20T15:59:12;20.00;68.40
3017;DHT22;1518;52.408;13.060;2023-03-20T16:02:01;20.00;68.60
3017;DHT22;1518;52.408;13.060;2023-03-20T16:04:51;20.00;68.70
3017;DHT22;1518;52.408;13.060;2023-03-20T16:07:41;19.90;68.60
3017;DHT22;1518;52.408;13.060;2023-03-20T16:10:31;19.90;68.60
3017;DHT22;1518;52.408;13.060;2023-03-20T16:13:22;19.90;68.80
3017;DHT22;1518;52.408;13.060;2023-03-20T16:16:14;19.80;68.70
3017;DHT22;1518;52.408;13.060;2023-03-20T16:19:04;19.80;68.60
3017;DHT22;1518;52.408;13.060;2023-03-20T16:21:54;19.80;68.70
3017;DHT22;1518;52.408;13.060;2023-03-20T16:24:45;19.80;68.80
3017;DHT22;1518;52.408;13.060;2023-03-20T16:27:34;19.70;68.80
3017;DHT22;1518;52.408;13.060;2023-03-20T16:30:25;19.70;68.80
3017;DHT22;1518;52.408;13.060;2023-03-20T16:33:16;19.70;68.60
3017;DHT22;1518;52.408;13.060;2023-03-20T16:36:05;19.70;68.60
3017;DHT22;1518;52.408;13.060;2023-03-20T16:38:54;19.70;68.70
3017;DHT22;1518;52.408;13.060;2023-03-20T16:41:43;19.70;68.60
3017;DHT22;1518;52.408;13.060;2023-03-20T16:44:33;19.70;68.80
3017;DHT22;1518;52.408;13.060;2023-03-20T16:47:23;19.70;69.00
3017;DHT22;1518;52.408;13.060;2023-03-20T16:50:21;19.70;69.10
3017;DHT22;1518;52.408;13.060;2023-03-20T16:53:11;19.60;69.10
3017;DHT22;1518;52.408;13.060;2023-03-20T16:56:01;19.60;69.30
3017;DHT22;1518;52.408;13.060;2023-03-20T16:58:51;19.50;69.20
3017;DHT22;1518;52.408;13.060;2023-03-20T17:01:43;19.50;69.30
3017;DHT22;1518;52.408;13.060;2023-03-20T17:12:46;19.50;69.50
3017;DHT22;1518;52.408;13.060;2023-03-20T17:15:34;19.40;69.40
3017;DHT22;1518;52.408;13.060;2023-03-20T17:18:22;19.40;69.60
3017;DHT22;1518;52.408;13.060;2023-03-20T17:21:10;19.40;69.60
3017;DHT22;1518;52.408;13.060;2023-03-20T17:23:58;19.40;69.80
3017;DHT22;1518;52.408;13.060;2023-03-20T17:26:51;19.40;69.70
3017;DHT22;1518;52.408;13.060;2023-03-20T17:29:41;19.40;69.80
3017;DHT22;1518;52.408;13.060;2023-03-20T17:32:29;19.30;69.70
3017;DHT22;1518;52.408;13.060;2023-03-20T17:35:19;19.30;69.70
3017;DHT22;1518;52.408;13.060;2023-03-20T17:38:13;19.30;69.70
3017;DHT22;1518;52.408;13.060;2023-03-20T17:41:02;19.30;69.60
3017;DHT22;1518;52.408;13.060;2023-03-20T17:43:51;19.30;69.50
3017;DHT22;1518;52.408;13.060;2023-03-20T17:46:40;19.30;69.40
3017;DHT22;1518;52.408;13.060;2023-03-20T17:49:44;19.30;69.10
3017;DHT22;1518;52.408;13.060;2023-03-20T17:52:32;19.20;68.70
3017;DHT22;1518;52.408;13.060;2023-03-20T17:55:20;19.30;68.70
3017;DHT22;1518;52.408;13.060;2023-03-20T17:58:13;19.30;68.50
3017;DHT22;1518;52.408;13.060;2023-03-20T18:01:01;19.30;68.40
3017;DHT22;1518;52.408;13.060;2023-03-20T18:03:51;19.20;68.30
3017;DHT22;1518;52.408;13.060;2023-03-20T18:06:39;19.30;67.70
3017;DHT22;1518;52.408;13.060;2023-03-20T18:09:27;19.20;67.70
3017;DHT22;1518;52.408;13.060;2023-03-20T18:12:17;19.20;67.60
3017;DHT22;1518;52.408;13.060;2023-03-20T18:15:08;19.30;67.70
3017;DHT22;1518;52.408;13.060;2023-03-20T18:17:56;19.10;67.60
3017;DHT22;1518;52.408;13.060;2023-03-20T18:20:46;19.10;67.50
3017;DHT22;1518;52.408;13.060;2023-03-20T18:23:34;19.10;67.40
3017;DHT22;1518;52.408;13.060;2023-03-20T18:26:24;19.10;67.40
3017;DHT22;1518;52.408;13.060;2023-03-20T18:29:13;19.10;67.40
3017;DHT22;1518;52.408;13.060;2023-03-20T18:32:02;18.90;84.10
3017;DHT22;1518;52.408;13.060;2023-03-20T18:34:50;19.00;67.30